sensor_id;sensor_type;location;lat;lon;timestamp;P1;durP1;ratioP1;P2;durP2;ratioP2
11084;SDS011;5596;46.826;8.650;2022-11-12T00:01:10;2.17;;;1.60;;
11084;SDS011;5596;46.826;8.650;2022-11-12T00:03:56;2.67;;;1.67;;
11084;SDS011;5596;46.826;8.650;2022-11-12T00:06:42;5.70;;;2.00;;
11084;SDS011;5596;46.826;8.650;2022-11-12T00:09:30;7.27;;;1.83;;
11084;SDS011;5596;46.826;8.650;2022-11-12T00:12:17;2.53;;;1.80;;
11084;SDS011;5596;46.826;8.650;2022-11-12T00:15:03;2.77;;;1.80;;
11084;SDS011;5596;46.826;8.650;2022-11-12T00:17:50;3.73;;;2.07;;
11084;SDS011;5596;46.826;8.650;2022-11-12T00:20:35;3.47;;;2.10;;
11084;SDS011;5596;46.826;8.650;2022-11-12T00:23:21;2.00;;;1.70;;
11084;SDS011;5596;46.826;8.650;2022-11-12T00:26:09;3.43;;;2.30;;
11084;SDS011;5596;46.826;8.650;2022-11-12T00:28:55;3.93;;;2.37;;
11084;SDS011;5596;46.826;8.650;2022-11-12T00:31:43;3.13;;;1.70;;
11084;SDS011;5596;46.826;8.650;2022-11-12T00:34:29;2.63;;;1.90;;
11084;SDS011;5596;46.826;8.650;2022-11-12T00:37:14;3.23;;;2.10;;
11084;SDS011;5596;46.826;8.650;2022-11-12T00:40:02;3.73;;;1.90;;
11084;SDS011;5596;46.826;8.650;2022-11-12T00:42:50;2.40;;;1.60;;
11084;SDS011;5596;46.826;8.650;2022-11-12T00:45:37;2.37;;;1.63;;
11084;SDS011;5596;46.826;8.650;2022-11-12T00:48:22;2.00;;;1.80;;
11084;SDS011;5596;46.826;8.650;2022-11-12T00:51:08;3.83;;;2.40;;
11084;SDS011;5596;46.826;8.650;2022-11-12T00:53:54;2.70;;;2.13;;
11084;SDS011;5596;46.826;8.650;2022-11-12T00:56:40;4.50;;;2.63;;
11084;SDS011;5596;46.826;8.650;2022-11-12T00:59:27;3.50;;;2.40;;
11084;SDS011;5596;46.826;8.650;2022-11-12T01:02:13;3.97;;;2.30;;
11084;SDS011;5596;46.826;8.650;2022-11-12T01:04:59;4.33;;;2.50;;
11084;SDS011;5596;46.826;8.650;2022-11-12T01:07:44;3.83;;;2.33;;
11084;SDS011;5596;46.826;8.650;2022-11-12T01:10:30;3.90;;;2.50;;
11084;SDS011;5596;46.826;8.650;2022-11-12T01:13:16;6.00;;;2.33;;
11084;SDS011;5596;46.826;8.650;2022-11-12T01:16:07;3.43;;;2.30;;
11084;SDS011;5596;46.826;8.650;2022-11-12T01:18:55;4.03;;;2.40;;
11084;SDS011;5596;46.826;8.650;2022-11-12T01:21:42;3.13;;;2.20;;
11084;SDS011;5596;46.826;8.650;2022-11-12T01:24:28;3.23;;;2.20;;
11084;SDS011;5596;46.826;8.650;2022-11-12T01:27:13;2.67;;;1.97;;
11084;SDS011;5596;46.826;8.650;2022-11-12T01:29:58;4.07;;;2.10;;
11084;SDS011;5596;46.826;8.650;2022-11-12T01:32:45;2.80;;;1.67;;
11084;SDS011;5596;46.826;8.650;2022-11-12T01:35:31;2.43;;;1.83;;
11084;SDS011;5596;46.826;8.650;2022-11-12T01:38:17;2.87;;;1.50;;
11084;SDS011;5596;46.826;8.650;2022-11-12T01:41:03;4.67;;;1.50;;
11084;SDS011;5596;46.826;8.650;2022-11-12T01:44:08;3.83;;;2.00;;
11084;SDS011;5596;46.826;8.650;2022-11-12T01:46:59;3.43;;;1.70;;
11084;SDS011;5596;46.826;8.650;2022-11-12T01:49:50;2.30;;;1.40;;
11084;SDS011;5596;46.826;8.650;2022-11-12T01:52:42;2.40;;;1.63;;
11084;SDS011;5596;46.826;8.650;2022-11-12T01:55:31;3.27;;;1.60;;
11084;SDS011;5596;46.826;8.650;2022-11-12T01:58:21;4.13;;;1.50;;
11084;SDS011;5596;46.826;8.650;2022-11-12T02:01:10;2.40;;;1.70;;
11084;SDS011;5596;46.826;8.650;2022-11-12T02:03:56;4.07;;;1.57;;
11084;SDS011;5596;46.826;8.650;2022-11-12T02:06:46;4.03;;;1.90;;
11084;SDS011;5596;46.826;8.650;2022-11-12T02:09:34;1.87;;;1.60;;
11084;SDS011;5596;46.826;8.650;2022-11-12T02:12:20;3.30;;;1.63;;
11084;SDS011;5596;46.826;8.650;2022-11-12T02:15:24;2.30;;;1.50;;
11084;SDS011;5596;46.826;8.650;2022-11-12T02:18:10;3.13;;;1.50;;
11084;SDS011;5596;46.826;8.650;2022-11-12T02:20:56;1.90;;;1.50;;
11084;SDS011;5596;46.826;8.650;2022-11-12T02:23:56;1.37;;;1.27;;
11084;SDS011;5596;46.826;8.650;2022-11-12T02:26:43;2.83;;;1.60;;
11084;SDS011;5596;46.826;8.650;2022-11-12T02:29:31;3.57;;;1.53;;
11084;SDS011;5596;46.826;8.650;2022-11-12T02:32:17;2.07;;;1.50;;
11084;SDS011;5596;46.826;8.650;2022-11-12T02:35:03;1.90;;;1.47;;
11084;SDS011;5596;46.826;8.650;2022-11-12T02:37:50;2.00;;;1.40;;
11084;SDS011;5596;46.826;8.650;2022-11-12T02:40:37;1.40;;;1.30;;
11084;SDS011;5596;46.826;8.650;2022-11-12T02:43:34;5.70;;;1.50;;
11084;SDS011;5596;46.826;8.650;2022-11-12T02:46:20;2.87;;;1.40;;
11084;SDS011;5596;46.826;8.650;2022-11-12T02:49:06;2.00;;;1.50;;
11084;SDS011;5596;46.826;8.650;2022-11-12T02:51:52;2.47;;;1.47;;
11084;SDS011;5596;46.826;8.650;2022-11-12T02:54:37;2.00;;;1.60;;
11084;SDS011;5596;46.826;8.650;2022-11-12T02:57:25;2.30;;;1.50;;
11084;SDS011;5596;46.826;8.650;2022-11-12T03:00:13;2.17;;;1.30;;
11084;SDS011;5596;46.826;8.650;2022-11-12T03:02:59;1.43;;;1.23;;
11084;SDS011;5596;46.826;8.650;2022-11-12T03:05:51;1.47;;;1.27;;
11084;SDS011;5596;46.826;8.650;2022-11-12T03:08:39;2.63;;;1.50;;
11084;SDS011;5596;46.826;8.650;2022-11-12T03:11:28;3.60;;;1.30;;
11084;SDS011;5596;46.826;8.650;2022-11-12T03:14:15;1.80;;;1.37;;
11084;SDS011;5596;46.826;8.650;2022-11-12T03:17:01;3.17;;;1.40;;
11084;SDS011;5596;46.826;8.650;2022-11-12T03:19:47;2.30;;;1.67;;
11084;SDS011;5596;46.826;8.650;2022-11-12T03:22:33;4.20;;;1.43;;
11084;SDS011;5596;46.826;8.650;2022-11-12T03:25:18;1.73;;;1.60;;
11084;SDS011;5596;46.826;8.650;2022-11-12T03:28:05;2.60;;;1.50;;
11084;SDS011;5596;46.826;8.650;2022-11-12T03:30:55;2.23;;;1.47;;
11084;SDS011;5596;46.826;8.650;2022-11-12T03:33:41;2.07;;;1.50;;
11084;SDS011;5596;46.826;8.650;2022-11-12T03:36:27;1.50;;;1.33;;
11084;SDS011;5596;46.826;8.650;2022-11-12T03:39:13;2.17;;;1.80;;
11084;SDS011;5596;46.826;8.650;2022-11-12T03:41:59;1.97;;;1.60;;
11084;SDS011;5596;46.826;8.650;2022-11-12T03:44:45;1.83;;;1.43;;
11084;SDS011;5596;46.826;8.650;2022-11-12T03:47:32;3.03;;;1.37;;
11084;SDS011;5596;46.826;8.650;2022-11-12T03:50:19;2.27;;;1.40;;
11084;SDS011;5596;46.826;8.650;2022-11-12T03:53:06;1.40;;;1.27;;
11084;SDS011;5596;46.826;8.650;2022-11-12T03:55:53;1.70;;;1.60;;
11084;SDS011;5596;46.826;8.650;2022-11-12T03:58:38;1.83;;;1.50;;
11084;SDS011;5596;46.826;8.650;2022-11-12T04:01:24;2.70;;;1.37;;
11084;SDS011;5596;46.826;8.650;2022-11-12T04:04:11;2.67;;;1.50;;
11084;SDS011;5596;46.826;8.650;2022-11-12T04:06:57;2.43;;;1.60;;
11084;SDS011;5596;46.826;8.650;2022-11-12T04:10:00;1.60;;;1.50;;
11084;SDS011;5596;46.826;8.650;2022-11-12T04:12:46;4.33;;;1.40;;
11084;SDS011;5596;46.826;8.650;2022-11-12T04:15:50;2.63;;;1.97;;
11084;SDS011;5596;46.826;8.650;2022-11-12T04:18:56;3.50;;;1.80;;
11084;SDS011;5596;46.826;8.650;2022-11-12T04:22:03;2.00;;;1.80;;
11084;SDS011;5596;46.826;8.650;2022-11-12T04:24:51;2.23;;;1.70;;
11084;SDS011;5596;46.826;8.650;2022-11-12T04:27:56;3.73;;;1.60;;
11084;SDS011;5596;46.826;8.650;2022-11-12T04:30:42;1.70;;;1.57;;
11084;SDS011;5596;46.826;8.650;2022-11-12T04:33:26;2.40;;;1.83;;
11084;SDS011;5596;46.826;8.650;2022-11-12T04:36:12;1.80;;;1.60;;
11084;SDS011;5596;46.826;8.650;2022-11-12T04:38:59;2.43;;;1.50;;
11084;SDS011;5596;46.826;8.650;2022-11-12T04:41:45;3.37;;;2.30;;
11084;SDS011;5596;46.826;8.650;2022-11-12T04:44:48;1.67;;;1.57;;
11084;SDS011;5596;46.826;8.650;2022-11-12T04:47:53;1.70;;;1.53;;
11084;SDS011;5596;46.826;8.650;2022-11-12T04:50:39;2.80;;;1.80;;
11084;SDS011;5596;46.826;8.650;2022-11-12T04:53:25;1.60;;;1.50;;
11084;SDS011;5596;46.826;8.650;2022-11-12T04:56:13;1.43;;;1.33;;
11084;SDS011;5596;46.826;8.650;2022-11-12T04:58:59;1.80;;;1.60;;
11084;SDS011;5596;46.826;8.650;2022-11-12T05:01:45;2.57;;;1.70;;
11084;SDS011;5596;46.826;8.650;2022-11-12T05:04:31;1.43;;;1.33;;
11084;SDS011;5596;46.826;8.650;2022-11-12T05:07:17;1.60;;;1.50;;
11084;SDS011;5596;46.826;8.650;2022-11-12T05:10:03;2.83;;;1.37;;
11084;SDS011;5596;46.826;8.650;2022-11-12T05:12:51;1.93;;;1.20;;
11084;SDS011;5596;46.826;8.650;2022-11-12T05:15:37;3.10;;;1.30;;
11084;SDS011;5596;46.826;8.650;2022-11-12T05:18:22;1.60;;;1.20;;
11084;SDS011;5596;46.826;8.650;2022-11-12T05:21:07;3.17;;;1.50;;
11084;SDS011;5596;46.826;8.650;2022-11-12T05:24:07;1.57;;;1.30;;
11084;SDS011;5596;46.826;8.650;2022-11-12T05:26:56;2.30;;;1.63;;
11084;SDS011;5596;46.826;8.650;2022-11-12T05:29:43;4.67;;;1.60;;
11084;SDS011;5596;46.826;8.650;2022-11-12T05:32:29;1.50;;;1.30;;
11084;SDS011;5596;46.826;8.650;2022-11-12T05:35:15;2.27;;;1.90;;
11084;SDS011;5596;46.826;8.650;2022-11-12T05:38:01;2.57;;;1.60;;
11084;SDS011;5596;46.826;8.650;2022-11-12T05:40:47;2.73;;;1.60;;
11084;SDS011;5596;46.826;8.650;2022-11-12T05:43:32;1.90;;;1.70;;
11084;SDS011;5596;46.826;8.650;2022-11-12T05:46:20;2.60;;;1.77;;
11084;SDS011;5596;46.826;8.650;2022-11-12T05:49:08;2.33;;;2.00;;
11084;SDS011;5596;46.826;8.650;2022-11-12T05:51:54;2.20;;;2.00;;
11084;SDS011;5596;46.826;8.650;2022-11-12T05:54:40;3.63;;;2.60;;
11084;SDS011;5596;46.826;8.650;2022-11-12T05:57:25;4.90;;;2.40;;
11084;SDS011;5596;46.826;8.650;2022-11-12T06:00:11;3.87;;;2.30;;
11084;SDS011;5596;46.826;8.650;2022-11-12T06:02:59;2.00;;;1.80;;
11084;SDS011;5596;46.826;8.650;2022-11-12T06:05:45;2.93;;;2.00;;
11084;SDS011;5596;46.826;8.650;2022-11-12T06:08:30;3.03;;;2.33;;
11084;SDS011;5596;46.826;8.650;2022-11-12T06:11:15;3.00;;;1.70;;
11084;SDS011;5596;46.826;8.650;2022-11-12T06:14:01;2.63;;;1.80;;
11084;SDS011;5596;46.826;8.650;2022-11-12T06:16:48;2.60;;;2.20;;
11084;SDS011;5596;46.826;8.650;2022-11-12T06:19:35;1.90;;;1.70;;
11084;SDS011;5596;46.826;8.650;2022-11-12T06:22:21;4.20;;;1.70;;
11084;SDS011;5596;46.826;8.650;2022-11-12T06:25:06;3.03;;;2.37;;
11084;SDS011;5596;46.826;8.650;2022-11-12T06:27:56;2.13;;;1.43;;
11084;SDS011;5596;46.826;8.650;2022-11-12T06:30:42;6.67;;;1.63;;
11084;SDS011;5596;46.826;8.650;2022-11-12T06:33:28;1.87;;;1.33;;
11084;SDS011;5596;46.826;8.650;2022-11-12T06:36:16;1.37;;;1.27;;
11084;SDS011;5596;46.826;8.650;2022-11-12T06:39:03;1.43;;;1.27;;
11084;SDS011;5596;46.826;8.650;2022-11-12T06:41:54;2.93;;;2.03;;
11084;SDS011;5596;46.826;8.650;2022-11-12T06:44:40;1.60;;;1.50;;
11084;SDS011;5596;46.826;8.650;2022-11-12T06:47:26;2.23;;;1.80;;
11084;SDS011;5596;46.826;8.650;2022-11-12T06:50:11;4.20;;;1.97;;
11084;SDS011;5596;46.826;8.650;2022-11-12T06:52:59;3.47;;;1.97;;
11084;SDS011;5596;46.826;8.650;2022-11-12T06:55:44;3.00;;;2.27;;
11084;SDS011;5596;46.826;8.650;2022-11-12T06:58:30;5.70;;;3.70;;
11084;SDS011;5596;46.826;8.650;2022-11-12T07:01:17;5.27;;;3.30;;
11084;SDS011;5596;46.826;8.650;2022-11-12T07:04:06;5.07;;;3.23;;
11084;SDS011;5596;46.826;8.650;2022-11-12T07:06:53;6.80;;;3.60;;
11084;SDS011;5596;46.826;8.650;2022-11-12T07:09:40;4.93;;;3.17;;
11084;SDS011;5596;46.826;8.650;2022-11-12T07:12:25;3.57;;;3.00;;
11084;SDS011;5596;46.826;8.650;2022-11-12T07:15:10;4.30;;;3.20;;
11084;SDS011;5596;46.826;8.650;2022-11-12T07:17:57;6.50;;;3.20;;
11084;SDS011;5596;46.826;8.650;2022-11-12T07:20:42;7.90;;;4.77;;
11084;SDS011;5596;46.826;8.650;2022-11-12T07:23:28;7.60;;;4.97;;
11084;SDS011;5596;46.826;8.650;2022-11-12T07:26:17;14.10;;;8.53;;
11084;SDS011;5596;46.826;8.650;2022-11-12T07:29:05;5.00;;;3.37;;
11084;SDS011;5596;46.826;8.650;2022-11-12T07:31:51;4.00;;;2.87;;
11084;SDS011;5596;46.826;8.650;2022-11-12T07:34:37;6.23;;;3.47;;
11084;SDS011;5596;46.826;8.650;2022-11-12T07:37:22;3.17;;;2.73;;
11084;SDS011;5596;46.826;8.650;2022-11-12T07:40:08;6.40;;;3.73;;
11084;SDS011;5596;46.826;8.650;2022-11-12T07:42:56;6.30;;;4.77;;
11084;SDS011;5596;46.826;8.650;2022-11-12T07:45:42;6.57;;;3.87;;
11084;SDS011;5596;46.826;8.650;2022-11-12T07:48:28;4.63;;;3.20;;
11084;SDS011;5596;46.826;8.650;2022-11-12T07:51:15;6.93;;;2.50;;
11084;SDS011;5596;46.826;8.650;2022-11-12T07:54:02;4.10;;;3.03;;
11084;SDS011;5596;46.826;8.650;2022-11-12T07:56:48;7.33;;;2.83;;
11084;SDS011;5596;46.826;8.650;2022-11-12T07:59:35;7.27;;;3.10;;
11084;SDS011;5596;46.826;8.650;2022-11-12T08:02:21;4.00;;;2.90;;
11084;SDS011;5596;46.826;8.650;2022-11-12T08:05:07;4.00;;;2.90;;
11084;SDS011;5596;46.826;8.650;2022-11-12T08:07:53;4.67;;;2.93;;
11084;SDS011;5596;46.826;8.650;2022-11-12T08:10:40;3.37;;;2.57;;
11084;SDS011;5596;46.826;8.650;2022-11-12T08:13:25;6.47;;;3.60;;
11084;SDS011;5596;46.826;8.650;2022-11-12T08:16:12;6.03;;;3.80;;
11084;SDS011;5596;46.826;8.650;2022-11-12T08:18:59;5.13;;;3.30;;
11084;SDS011;5596;46.826;8.650;2022-11-12T08:21:44;3.90;;;2.80;;
11084;SDS011;5596;46.826;8.650;2022-11-12T08:24:29;5.27;;;3.13;;
11084;SDS011;5596;46.826;8.650;2022-11-12T08:27:16;6.33;;;2.97;;
11084;SDS011;5596;46.826;8.650;2022-11-12T08:30:02;3.07;;;2.77;;
11084;SDS011;5596;46.826;8.650;2022-11-12T08:32:55;3.30;;;2.37;;
11084;SDS011;5596;46.826;8.650;2022-11-12T08:35:42;3.83;;;2.97;;
11084;SDS011;5596;46.826;8.650;2022-11-12T08:38:28;3.13;;;2.57;;
11084;SDS011;5596;46.826;8.650;2022-11-12T08:41:14;3.57;;;2.53;;
11084;SDS011;5596;46.826;8.650;2022-11-12T08:44:00;4.97;;;2.63;;
11084;SDS011;5596;46.826;8.650;2022-11-12T08:46:46;3.30;;;2.40;;
11084;SDS011;5596;46.826;8.650;2022-11-12T08:49:33;4.27;;;2.37;;
11084;SDS011;5596;46.826;8.650;2022-11-12T08:52:19;3.57;;;2.57;;
11084;SDS011;5596;46.826;8.650;2022-11-12T08:55:06;8.90;;;2.70;;
11084;SDS011;5596;46.826;8.650;2022-11-12T08:57:55;3.63;;;2.70;;
11084;SDS011;5596;46.826;8.650;2022-11-12T09:00:45;3.20;;;2.80;;
11084;SDS011;5596;46.826;8.650;2022-11-12T09:03:32;8.03;;;4.20;;
11084;SDS011;5596;46.826;8.650;2022-11-12T09:06:20;4.00;;;3.13;;
11084;SDS011;5596;46.826;8.650;2022-11-12T09:09:06;4.47;;;2.67;;
11084;SDS011;5596;46.826;8.650;2022-11-12T09:11:52;4.53;;;3.10;;
11084;SDS011;5596;46.826;8.650;2022-11-12T09:14:46;5.47;;;3.10;;
11084;SDS011;5596;46.826;8.650;2022-11-12T09:17:31;8.67;;;3.37;;
11084;SDS011;5596;46.826;8.650;2022-11-12T09:20:17;6.53;;;4.10;;
11084;SDS011;5596;46.826;8.650;2022-11-12T09:23:05;5.67;;;4.03;;
11084;SDS011;5596;46.826;8.650;2022-11-12T09:25:53;5.97;;;4.20;;
11084;SDS011;5596;46.826;8.650;2022-11-12T09:28:46;6.20;;;4.63;;
11084;SDS011;5596;46.826;8.650;2022-11-12T09:31:33;6.33;;;4.30;;
11084;SDS011;5596;46.826;8.650;2022-11-12T09:34:18;7.27;;;4.20;;
11084;SDS011;5596;46.826;8.650;2022-11-12T09:37:08;7.03;;;4.90;;
11084;SDS011;5596;46.826;8.650;2022-11-12T09:39:54;7.50;;;4.57;;
11084;SDS011;5596;46.826;8.650;2022-11-12T09:42:40;5.33;;;4.50;;
11084;SDS011;5596;46.826;8.650;2022-11-12T09:45:29;7.53;;;4.70;;
11084;SDS011;5596;46.826;8.650;2022-11-12T09:48:17;5.70;;;4.60;;
11084;SDS011;5596;46.826;8.650;2022-11-12T09:51:09;5.80;;;4.40;;
11084;SDS011;5596;46.826;8.650;2022-11-12T09:54:02;6.17;;;4.30;;
11084;SDS011;5596;46.826;8.650;2022-11-12T09:56:59;6.37;;;3.97;;
11084;SDS011;5596;46.826;8.650;2022-11-12T09:59:45;5.43;;;4.03;;
11084;SDS011;5596;46.826;8.650;2022-11-12T10:02:33;7.03;;;3.73;;
11084;SDS011;5596;46.826;8.650;2022-11-12T10:05:25;5.50;;;3.67;;
11084;SDS011;5596;46.826;8.650;2022-11-12T10:08:28;5.23;;;4.20;;
11084;SDS011;5596;46.826;8.650;2022-11-12T10:11:32;8.20;;;5.07;;
11084;SDS011;5596;46.826;8.650;2022-11-12T10:15:02;4.67;;;3.93;;
11084;SDS011;5596;46.826;8.650;2022-11-12T10:18:28;5.43;;;3.80;;
11084;SDS011;5596;46.826;8.650;2022-11-12T10:21:28;4.47;;;3.77;;
11084;SDS011;5596;46.826;8.650;2022-11-12T10:24:21;4.77;;;3.50;;
11084;SDS011;5596;46.826;8.650;2022-11-12T10:27:11;5.93;;;4.40;;
11084;SDS011;5596;46.826;8.650;2022-11-12T10:30:02;4.87;;;3.67;;
11084;SDS011;5596;46.826;8.650;2022-11-12T10:32:50;5.50;;;3.60;;
11084;SDS011;5596;46.826;8.650;2022-11-12T10:35:37;5.87;;;3.37;;
11084;SDS011;5596;46.826;8.650;2022-11-12T10:38:24;3.80;;;3.03;;
11084;SDS011;5596;46.826;8.650;2022-11-12T10:41:19;4.77;;;3.47;;
11084;SDS011;5596;46.826;8.650;2022-11-12T10:44:09;7.50;;;3.57;;
11084;SDS011;5596;46.826;8.650;2022-11-12T10:50:28;5.80;;;3.87;;
11084;SDS011;5596;46.826;8.650;2022-11-12T10:53:27;5.33;;;3.40;;
11084;SDS011;5596;46.826;8.650;2022-11-12T10:56:23;6.23;;;4.13;;
11084;SDS011;5596;46.826;8.650;2022-11-12T10:59:14;4.00;;;3.60;;
11084;SDS011;5596;46.826;8.650;2022-11-12T11:02:01;4.40;;;3.47;;
11084;SDS011;5596;46.826;8.650;2022-11-12T11:04:48;4.90;;;3.50;;
11084;SDS011;5596;46.826;8.650;2022-11-12T11:07:34;4.07;;;3.60;;
11084;SDS011;5596;46.826;8.650;2022-11-12T11:10:22;5.23;;;3.67;;
11084;SDS011;5596;46.826;8.650;2022-11-12T11:13:20;6.13;;;4.00;;
11084;SDS011;5596;46.826;8.650;2022-11-12T11:16:07;4.57;;;3.83;;
11084;SDS011;5596;46.826;8.650;2022-11-12T11:18:57;5.70;;;4.30;;
11084;SDS011;5596;46.826;8.650;2022-11-12T11:21:54;7.53;;;4.33;;
11084;SDS011;5596;46.826;8.650;2022-11-12T11:24:48;4.37;;;3.90;;
11084;SDS011;5596;46.826;8.650;2022-11-12T11:27:43;5.27;;;4.23;;
11084;SDS011;5596;46.826;8.650;2022-11-12T11:30:43;6.10;;;4.10;;
11084;SDS011;5596;46.826;8.650;2022-11-12T11:33:38;5.90;;;4.40;;
11084;SDS011;5596;46.826;8.650;2022-11-12T11:36:33;5.00;;;4.27;;
11084;SDS011;5596;46.826;8.650;2022-11-12T11:39:30;6.60;;;4.40;;
11084;SDS011;5596;46.826;8.650;2022-11-12T11:42:34;5.33;;;4.37;;
11084;SDS011;5596;46.826;8.650;2022-11-12T11:45:41;4.97;;;4.17;;
11084;SDS011;5596;46.826;8.650;2022-11-12T11:48:42;6.30;;;4.27;;
11084;SDS011;5596;46.826;8.650;2022-11-12T11:51:40;4.73;;;4.30;;
11084;SDS011;5596;46.826;8.650;2022-11-12T11:54:43;7.43;;;5.00;;
11084;SDS011;5596;46.826;8.650;2022-11-12T11:57:39;6.50;;;4.60;;
11084;SDS011;5596;46.826;8.650;2022-11-12T12:00:42;6.60;;;4.47;;
11084;SDS011;5596;46.826;8.650;2022-11-12T12:03:35;5.17;;;4.23;;
11084;SDS011;5596;46.826;8.650;2022-11-12T12:06:36;4.90;;;4.07;;
11084;SDS011;5596;46.826;8.650;2022-11-12T12:09:32;7.53;;;4.53;;
11084;SDS011;5596;46.826;8.650;2022-11-12T12:12:26;4.90;;;4.50;;
11084;SDS011;5596;46.826;8.650;2022-11-12T12:15:26;5.30;;;4.30;;
11084;SDS011;5596;46.826;8.650;2022-11-12T12:18:24;6.70;;;4.00;;
11084;SDS011;5596;46.826;8.650;2022-11-12T12:21:20;6.20;;;4.50;;
11084;SDS011;5596;46.826;8.650;2022-11-12T12:24:09;5.47;;;4.27;;
11084;SDS011;5596;46.826;8.650;2022-11-12T12:27:01;7.47;;;4.60;;
11084;SDS011;5596;46.826;8.650;2022-11-12T12:29:56;5.63;;;4.73;;
11084;SDS011;5596;46.826;8.650;2022-11-12T12:32:46;6.97;;;3.93;;
11084;SDS011;5596;46.826;8.650;2022-11-12T12:35:39;5.60;;;4.30;;
11084;SDS011;5596;46.826;8.650;2022-11-12T12:38:37;4.80;;;3.73;;
11084;SDS011;5596;46.826;8.650;2022-11-12T12:41:28;5.57;;;3.93;;
11084;SDS011;5596;46.826;8.650;2022-11-12T12:44:21;4.40;;;3.80;;
11084;SDS011;5596;46.826;8.650;2022-11-12T12:47:29;6.33;;;4.00;;
11084;SDS011;5596;46.826;8.650;2022-11-12T12:50:25;6.43;;;4.90;;
11084;SDS011;5596;46.826;8.650;2022-11-12T12:53:16;6.07;;;4.77;;
11084;SDS011;5596;46.826;8.650;2022-11-12T12:59:32;4.60;;;4.00;;
11084;SDS011;5596;46.826;8.650;2022-11-12T13:02:18;5.30;;;4.00;;
11084;SDS011;5596;46.826;8.650;2022-11-12T13:05:19;6.60;;;4.60;;
11084;SDS011;5596;46.826;8.650;2022-11-12T13:08:08;5.07;;;4.27;;
11084;SDS011;5596;46.826;8.650;2022-11-12T13:10:56;6.10;;;5.10;;
11084;SDS011;5596;46.826;8.650;2022-11-12T13:13:42;5.57;;;4.63;;
11084;SDS011;5596;46.826;8.650;2022-11-12T13:19:43;6.00;;;4.90;;
11084;SDS011;5596;46.826;8.650;2022-11-12T13:25:31;6.23;;;5.07;;
11084;SDS011;5596;46.826;8.650;2022-11-12T13:28:17;7.10;;;4.90;;
11084;SDS011;5596;46.826;8.650;2022-11-12T13:31:22;6.30;;;4.70;;
11084;SDS011;5596;46.826;8.650;2022-11-12T13:34:24;6.43;;;5.13;;
11084;SDS011;5596;46.826;8.650;2022-11-12T13:37:17;7.27;;;4.77;;
11084;SDS011;5596;46.826;8.650;2022-11-12T13:40:08;7.07;;;4.63;;
11084;SDS011;5596;46.826;8.650;2022-11-12T13:43:02;6.33;;;5.47;;
11084;SDS011;5596;46.826;8.650;2022-11-12T13:45:51;7.23;;;6.03;;
11084;SDS011;5596;46.826;8.650;2022-11-12T13:48:42;8.20;;;6.00;;
11084;SDS011;5596;46.826;8.650;2022-11-12T13:51:36;8.90;;;5.90;;
11084;SDS011;5596;46.826;8.650;2022-11-12T13:54:31;7.77;;;6.40;;
11084;SDS011;5596;46.826;8.650;2022-11-12T13:57:26;8.13;;;6.40;;
11084;SDS011;5596;46.826;8.650;2022-11-12T14:00:23;7.83;;;6.00;;
11084;SDS011;5596;46.826;8.650;2022-11-12T14:03:13;8.37;;;6.60;;
11084;SDS011;5596;46.826;8.650;2022-11-12T14:06:03;11.60;;;7.20;;
11084;SDS011;5596;46.826;8.650;2022-11-12T14:08:58;8.63;;;6.33;;
11084;SDS011;5596;46.826;8.650;2022-11-12T14:15:13;8.07;;;6.97;;
11084;SDS011;5596;46.826;8.650;2022-11-12T14:18:16;10.17;;;6.80;;
11084;SDS011;5596;46.826;8.650;2022-11-12T14:21:11;9.53;;;7.13;;
11084;SDS011;5596;46.826;8.650;2022-11-12T14:24:01;11.70;;;6.73;;
11084;SDS011;5596;46.826;8.650;2022-11-12T14:26:48;12.00;;;7.23;;
11084;SDS011;5596;46.826;8.650;2022-11-12T14:29:34;9.40;;;7.33;;
11084;SDS011;5596;46.826;8.650;2022-11-12T14:32:21;9.20;;;7.23;;
11084;SDS011;5596;46.826;8.650;2022-11-12T14:35:18;8.10;;;6.23;;
11084;SDS011;5596;46.826;8.650;2022-11-12T14:38:19;9.23;;;7.50;;
11084;SDS011;5596;46.826;8.650;2022-11-12T14:41:08;10.50;;;7.30;;
11084;SDS011;5596;46.826;8.650;2022-11-12T14:43:56;10.20;;;7.27;;
11084;SDS011;5596;46.826;8.650;2022-11-12T14:46:46;9.67;;;7.63;;
11084;SDS011;5596;46.826;8.650;2022-11-12T14:49:36;15.30;;;9.53;;
11084;SDS011;5596;46.826;8.650;2022-11-12T14:52:26;14.43;;;7.90;;
11084;SDS011;5596;46.826;8.650;2022-11-12T14:55:16;12.83;;;7.73;;
11084;SDS011;5596;46.826;8.650;2022-11-12T14:58:06;10.03;;;7.43;;
11084;SDS011;5596;46.826;8.650;2022-11-12T15:00:56;9.60;;;7.70;;
11084;SDS011;5596;46.826;8.650;2022-11-12T15:03:43;9.50;;;7.50;;
11084;SDS011;5596;46.826;8.650;2022-11-12T15:06:31;9.33;;;7.67;;
11084;SDS011;5596;46.826;8.650;2022-11-12T15:09:17;9.53;;;7.23;;
11084;SDS011;5596;46.826;8.650;2022-11-12T15:12:18;9.60;;;7.43;;
11084;SDS011;5596;46.826;8.650;2022-11-12T15:15:06;11.27;;;7.67;;
11084;SDS011;5596;46.826;8.650;2022-11-12T15:17:57;9.47;;;7.47;;
11084;SDS011;5596;46.826;8.650;2022-11-12T15:20:44;10.50;;;8.30;;
11084;SDS011;5596;46.826;8.650;2022-11-12T15:23:46;9.63;;;7.73;;
11084;SDS011;5596;46.826;8.650;2022-11-12T15:26:34;12.60;;;7.87;;
11084;SDS011;5596;46.826;8.650;2022-11-12T15:29:28;12.03;;;7.70;;
11084;SDS011;5596;46.826;8.650;2022-11-12T15:32:30;9.67;;;7.40;;
11084;SDS011;5596;46.826;8.650;2022-11-12T15:38:23;8.80;;;7.13;;
11084;SDS011;5596;46.826;8.650;2022-11-12T15:41:22;13.07;;;8.07;;
11084;SDS011;5596;46.826;8.650;2022-11-12T15:44:12;9.33;;;7.50;;
11084;SDS011;5596;46.826;8.650;2022-11-12T15:46:58;9.97;;;7.17;;
11084;SDS011;5596;46.826;8.650;2022-11-12T15:49:48;10.70;;;7.80;;
11084;SDS011;5596;46.826;8.650;2022-11-12T15:52:35;12.90;;;8.13;;
11084;SDS011;5596;46.826;8.650;2022-11-12T15:55:21;10.23;;;8.27;;
11084;SDS011;5596;46.826;8.650;2022-11-12T15:58:10;9.80;;;7.30;;
11084;SDS011;5596;46.826;8.650;2022-11-12T16:01:00;10.40;;;7.13;;
11084;SDS011;5596;46.826;8.650;2022-11-12T16:03:47;10.53;;;7.43;;
11084;SDS011;5596;46.826;8.650;2022-11-12T16:06:33;10.73;;;6.70;;
11084;SDS011;5596;46.826;8.650;2022-11-12T16:09:18;11.07;;;6.67;;
11084;SDS011;5596;46.826;8.650;2022-11-12T16:12:04;11.33;;;7.00;;
11084;SDS011;5596;46.826;8.650;2022-11-12T16:14:54;7.67;;;6.03;;
11084;SDS011;5596;46.826;8.650;2022-11-12T16:17:42;8.83;;;6.67;;
11084;SDS011;5596;46.826;8.650;2022-11-12T16:20:29;8.53;;;6.53;;
11084;SDS011;5596;46.826;8.650;2022-11-12T16:23:17;9.13;;;6.30;;
11084;SDS011;5596;46.826;8.650;2022-11-12T16:26:03;9.67;;;6.33;;
11084;SDS011;5596;46.826;8.650;2022-11-12T16:28:52;8.87;;;6.80;;
11084;SDS011;5596;46.826;8.650;2022-11-12T16:31:40;9.80;;;7.23;;
11084;SDS011;5596;46.826;8.650;2022-11-12T16:34:26;10.80;;;7.67;;
11084;SDS011;5596;46.826;8.650;2022-11-12T16:37:12;11.30;;;7.13;;
11084;SDS011;5596;46.826;8.650;2022-11-12T16:39:58;9.30;;;7.17;;
11084;SDS011;5596;46.826;8.650;2022-11-12T16:42:44;12.97;;;8.33;;
11084;SDS011;5596;46.826;8.650;2022-11-12T16:45:31;13.20;;;8.37;;
11084;SDS011;5596;46.826;8.650;2022-11-12T16:48:20;11.80;;;7.50;;
11084;SDS011;5596;46.826;8.650;2022-11-12T16:51:09;9.73;;;7.30;;
11084;SDS011;5596;46.826;8.650;2022-11-12T16:53:59;7.83;;;6.60;;
11084;SDS011;5596;46.826;8.650;2022-11-12T16:56:45;8.13;;;6.60;;
11084;SDS011;5596;46.826;8.650;2022-11-12T16:59:31;11.20;;;7.60;;
11084;SDS011;5596;46.826;8.650;2022-11-12T17:02:16;10.17;;;7.30;;
11084;SDS011;5596;46.826;8.650;2022-11-12T17:05:03;10.63;;;7.37;;
11084;SDS011;5596;46.826;8.650;2022-11-12T17:07:53;8.40;;;6.37;;
11084;SDS011;5596;46.826;8.650;2022-11-12T17:10:39;10.83;;;7.20;;
11084;SDS011;5596;46.826;8.650;2022-11-12T17:13:25;10.23;;;7.63;;
11084;SDS011;5596;46.826;8.650;2022-11-12T17:16:10;10.07;;;7.77;;
11084;SDS011;5596;46.826;8.650;2022-11-12T17:18:57;11.00;;;8.17;;
11084;SDS011;5596;46.826;8.650;2022-11-12T17:21:46;13.60;;;9.10;;
11084;SDS011;5596;46.826;8.650;2022-11-12T17:24:33;13.63;;;10.23;;
11084;SDS011;5596;46.826;8.650;2022-11-12T17:27:19;21.17;;;14.37;;
11084;SDS011;5596;46.826;8.650;2022-11-12T17:30:05;15.77;;;11.73;;
11084;SDS011;5596;46.826;8.650;2022-11-12T17:32:51;12.90;;;9.87;;
11084;SDS011;5596;46.826;8.650;2022-11-12T17:35:37;13.00;;;9.70;;